sensor_id;sensor_type;location;lat;lon;timestamp;temperature;humidity
20479;DHT22;10398;52.490;13.434;2022-12-16T00:01:20;-2.80;99.90
20479;DHT22;10398;52.490;13.434;2022-12-16T00:03:52;-2.80;99.90
20479;DHT22;10398;52.490;13.434;2022-12-16T00:06:20;-2.70;99.90
20479;DHT22;10398;52.490;13.434;2022-12-16T00:08:46;-2.70;99.90
20479;DHT22;10398;52.490;13.434;2022-12-16T00:11:12;-2.70;99.90
20479;DHT22;10398;52.490;13.434;2022-12-16T00:13:38;-2.70;99.90
20479;DHT22;10398;52.490;13.434;2022-12-16T00:16:12;-2.70;99.90
20479;DHT22;10398;52.490;13.434;2022-12-16T00:18:38;-2.80;99.90
20479;DHT22;10398;52.490;13.434;2022-12-16T00:21:04;-2.80;99.90
20479;DHT22;10398;52.490;13.434;2022-12-16T00:23:30;-2.90;99.90
20479;DHT22;10398;52.490;13.434;2022-12-16T00:25:56;-2.80;99.90
20479;DHT22;10398;52.490;13.434;2022-12-16T00:28:21;-2.80;99.90
20479;DHT22;10398;52.490;13.434;2022-12-16T00:30:49;-2.80;99.90
20479;DHT22;10398;52.490;13.434;2022-12-16T00:33:15;-2.80;99.90
20479;DHT22;10398;52.490;13.434;2022-12-16T00:35:42;-2.90;99.90
20479;DHT22;10398;52.490;13.434;2022-12-16T00:38:08;-3.00;99.90
20479;DHT22;10398;52.490;13.434;2022-12-16T00:40:34;-3.10;99.90
20479;DHT22;10398;52.490;13.434;2022-12-16T00:42:59;-3.10;99.90
20479;DHT22;10398;52.490;13.434;2022-12-16T00:45:25;-3.10;99.90
20479;DHT22;10398;52.490;13.434;2022-12-16T00:47:51;-3.10;99.90
20479;DHT22;10398;52.490;13.434;2022-12-16T00:50:17;-3.20;99.90
20479;DHT22;10398;52.490;13.434;2022-12-16T00:52:45;-3.20;99.90
20479;DHT22;10398;52.490;13.434;2022-12-16T00:55:11;-3.10;99.90
20479;DHT22;10398;52.490;13.434;2022-12-16T00:57:37;-3.20;99.90
20479;DHT22;10398;52.490;13.434;2022-12-16T01:00:04;-3.20;99.90
20479;DHT22;10398;52.490;13.434;2022-12-16T01:02:30;-3.10;99.90
20479;DHT22;10398;52.490;13.434;2022-12-16T01:04:56;-2.90;99.90
20479;DHT22;10398;52.490;13.434;2022-12-16T01:07:22;-2.90;99.90
20479;DHT22;10398;52.490;13.434;2022-12-16T01:09:48;-2.90;99.90
20479;DHT22;10398;52.490;13.434;2022-12-16T01:12:13;-2.80;99.90
20479;DHT22;10398;52.490;13.434;2022-12-16T01:14:39;-2.80;99.90
20479;DHT22;10398;52.490;13.434;2022-12-16T01:17:05;-2.70;99.90
20479;DHT22;10398;52.490;13.434;2022-12-16T01:19:30;-2.70;99.90
20479;DHT22;10398;52.490;13.434;2022-12-16T01:21:56;-2.80;99.90
20479;DHT22;10398;52.490;13.434;2022-12-16T01:24:22;-2.90;99.90
20479;DHT22;10398;52.490;13.434;2022-12-16T01:26:47;-3.00;99.90
20479;DHT22;10398;52.490;13.434;2022-12-16T01:29:13;-3.00;99.90
20479;DHT22;10398;52.490;13.434;2022-12-16T01:31:39;-3.00;99.90
20479;DHT22;10398;52.490;13.434;2022-12-16T01:34:04;-3.00;99.90
20479;DHT22;10398;52.490;13.434;2022-12-16T01:36:30;-3.10;99.90
20479;DHT22;10398;52.490;13.434;2022-12-16T01:38:56;-3.10;99.90
20479;DHT22;10398;52.490;13.434;2022-12-16T01:41:22;-3.10;99.90
20479;DHT22;10398;52.490;13.434;2022-12-16T01:43:48;-3.20;99.90
20479;DHT22;10398;52.490;13.434;2022-12-16T01:49:03;-3.20;99.90
20479;DHT22;10398;52.490;13.434;2022-12-16T01:51:39;-3.20;99.90
20479;DHT22;10398;52.490;13.434;2022-12-16T01:54:18;-3.10;99.90
20479;DHT22;10398;52.490;13.434;2022-12-16T01:56:57;-3.10;99.90
20479;DHT22;10398;52.490;13.434;2022-12-16T01:59:24;-3.10;99.90
20479;DHT22;10398;52.490;13.434;2022-12-16T02:01:52;-3.10;99.90
20479;DHT22;10398;52.490;13.434;2022-12-16T02:04:17;-3.10;99.90
20479;DHT22;10398;52.490;13.434;2022-12-16T02:06:43;-3.00;99.90
20479;DHT22;10398;52.490;13.434;2022-12-16T02:09:10;-3.10;99.90
20479;DHT22;10398;52.490;13.434;2022-12-16T02:14:30;-3.10;99.90
20479;DHT22;10398;52.490;13.434;2022-12-16T02:38:59;-3.30;99.90
20479;DHT22;10398;52.490;13.434;2022-12-16T02:44:05;-3.30;99.90
20479;DHT22;10398;52.490;13.434;2022-12-16T02:46:37;-3.30;99.90
20479;DHT22;10398;52.490;13.434;2022-12-16T02:49:05;-3.40;99.90
20479;DHT22;10398;52.490;13.434;2022-12-16T02:51:32;-3.50;99.90
20479;DHT22;10398;52.490;13.434;2022-12-16T02:54:00;-3.50;99.90
20479;DHT22;10398;52.490;13.434;2022-12-16T03:05:06;-3.20;99.90
20479;DHT22;10398;52.490;13.434;2022-12-16T03:07:34;-3.40;99.90
20479;DHT22;10398;52.490;13.434;2022-12-16T03:10:05;-3.50;99.90
20479;DHT22;10398;52.490;13.434;2022-12-16T03:12:33;-3.40;99.90
20479;DHT22;10398;52.490;13.434;2022-12-16T03:15:01;-3.50;99.90
20479;DHT22;10398;52.490;13.434;2022-12-16T03:17:28;-3.50;99.90
20479;DHT22;10398;52.490;13.434;2022-12-16T03:20:06;-3.40;99.90
20479;DHT22;10398;52.490;13.434;2022-12-16T03:22:36;-3.50;99.90
20479;DHT22;10398;52.490;13.434;2022-12-16T03:25:04;-3.50;99.90
20479;DHT22;10398;52.490;13.434;2022-12-16T03:30:35;-3.40;99.90
20479;DHT22;10398;52.490;13.434;2022-12-16T03:33:09;-3.50;99.90
20479;DHT22;10398;52.490;13.434;2022-12-16T03:35:40;-3.50;99.90
20479;DHT22;10398;52.490;13.434;2022-12-16T03:38:10;-3.40;99.90
20479;DHT22;10398;52.490;13.434;2022-12-16T03:40:38;-3.40;99.90
20479;DHT22;10398;52.490;13.434;2022-12-16T03:43:05;-3.30;99.90
20479;DHT22;10398;52.490;13.434;2022-12-16T03:45:36;-3.30;99.90
20479;DHT22;10398;52.490;13.434;2022-12-16T03:48:05;-3.30;99.90
20479;DHT22;10398;52.490;13.434;2022-12-16T03:50:33;-3.30;99.90
20479;DHT22;10398;52.490;13.434;2022-12-16T03:52:59;-3.30;99.90
20479;DHT22;10398;52.490;13.434;2022-12-16T03:55:25;-3.30;99.90
20479;DHT22;10398;52.490;13.434;2022-12-16T03:57:51;-3.20;99.90
20479;DHT22;10398;52.490;13.434;2022-12-16T04:00:16;-3.30;99.90
20479;DHT22;10398;52.490;13.434;2022-12-16T04:02:43;-3.40;99.90
20479;DHT22;10398;52.490;13.434;2022-12-16T04:05:08;-3.50;99.90
20479;DHT22;10398;52.490;13.434;2022-12-16T04:07:34;-3.40;99.90
20479;DHT22;10398;52.490;13.434;2022-12-16T04:09:59;-3.30;99.90
20479;DHT22;10398;52.490;13.434;2022-12-16T04:12:25;-3.30;99.90
20479;DHT22;10398;52.490;13.434;2022-12-16T04:15:10;-3.40;99.90
20479;DHT22;10398;52.490;13.434;2022-12-16T04:18:07;-3.40;99.90
20479;DHT22;10398;52.490;13.434;2022-12-16T04:20:54;-3.40;99.90
20479;DHT22;10398;52.490;13.434;2022-12-16T04:23:48;-3.50;99.90
20479;DHT22;10398;52.490;13.434;2022-12-16T04:26:33;-3.60;99.90
20479;DHT22;10398;52.490;13.434;2022-12-16T04:29:19;-3.50;99.90
20479;DHT22;10398;52.490;13.434;2022-12-16T04:31:45;-3.50;99.90
20479;DHT22;10398;52.490;13.434;2022-12-16T04:34:10;-3.50;99.90
20479;DHT22;10398;52.490;13.434;2022-12-16T04:36:53;-3.50;99.90
20479;DHT22;10398;52.490;13.434;2022-12-16T04:39:38;-3.50;99.90
20479;DHT22;10398;52.490;13.434;2022-12-16T04:42:22;-3.50;99.90
20479;DHT22;10398;52.490;13.434;2022-12-16T04:45:06;-3.50;99.90
20479;DHT22;10398;52.490;13.434;2022-12-16T04:47:52;-3.50;99.90
20479;DHT22;10398;52.490;13.434;2022-12-16T04:50:36;-3.50;99.90
20479;DHT22;10398;52.490;13.434;2022-12-16T04:53:20;-3.50;99.90
20479;DHT22;10398;52.490;13.434;2022-12-16T04:56:04;-3.40;99.90
20479;DHT22;10398;52.490;13.434;2022-12-16T04:58:48;-3.40;99.90
20479;DHT22;10398;52.490;13.434;2022-12-16T05:01:32;-3.30;99.90
20479;DHT22;10398;52.490;13.434;2022-12-16T05:04:16;-3.30;99.90
20479;DHT22;10398;52.490;13.434;2022-12-16T05:07:00;-3.40;99.90
20479;DHT22;10398;52.490;13.434;2022-12-16T05:09:44;-3.50;99.90
20479;DHT22;10398;52.490;13.434;2022-12-16T05:12:29;-3.50;99.90
20479;DHT22;10398;52.490;13.434;2022-12-16T05:15:13;-3.40;99.90
20479;DHT22;10398;52.490;13.434;2022-12-16T05:17:57;-3.40;99.90
20479;DHT22;10398;52.490;13.434;2022-12-16T05:20:41;-3.40;99.90
20479;DHT22;10398;52.490;13.434;2022-12-16T05:23:25;-3.40;99.90
20479;DHT22;10398;52.490;13.434;2022-12-16T05:26:09;-3.30;99.90
20479;DHT22;10398;52.490;13.434;2022-12-16T05:28:52;-3.40;99.90
20479;DHT22;10398;52.490;13.434;2022-12-16T05:31:36;-3.40;99.90
20479;DHT22;10398;52.490;13.434;2022-12-16T05:34:20;-3.50;99.90
20479;DHT22;10398;52.490;13.434;2022-12-16T05:37:04;-3.60;99.90
20479;DHT22;10398;52.490;13.434;2022-12-16T05:39:49;-3.60;99.90
20479;DHT22;10398;52.490;13.434;2022-12-16T05:42:33;-3.60;99.90
20479;DHT22;10398;52.490;13.434;2022-12-16T05:45:17;-3.60;99.90
20479;DHT22;10398;52.490;13.434;2022-12-16T05:48:00;-3.50;99.90
20479;DHT22;10398;52.490;13.434;2022-12-16T05:50:44;-3.40;99.90
20479;DHT22;10398;52.490;13.434;2022-12-16T05:53:28;-3.50;99.90
20479;DHT22;10398;52.490;13.434;2022-12-16T05:56:13;-3.50;99.90
20479;DHT22;10398;52.490;13.434;2022-12-16T05:58:57;-3.50;99.90
20479;DHT22;10398;52.490;13.434;2022-12-16T06:01:41;-3.50;99.90
20479;DHT22;10398;52.490;13.434;2022-12-16T06:04:25;-3.40;99.90
20479;DHT22;10398;52.490;13.434;2022-12-16T06:07:09;-3.30;99.90
20479;DHT22;10398;52.490;13.434;2022-12-16T06:09:53;-3.40;99.90
20479;DHT22;10398;52.490;13.434;2022-12-16T06:12:37;-3.40;99.90
20479;DHT22;10398;52.490;13.434;2022-12-16T06:15:21;-3.40;99.90
20479;DHT22;10398;52.490;13.434;2022-12-16T06:18:05;-3.40;99.90
20479;DHT22;10398;52.490;13.434;2022-12-16T06:20:49;-3.30;99.90
20479;DHT22;10398;52.490;13.434;2022-12-16T06:23:33;-3.20;99.90
20479;DHT22;10398;52.490;13.434;2022-12-16T06:26:17;-3.30;99.90
20479;DHT22;10398;52.490;13.434;2022-12-16T06:29:02;-3.20;99.90
20479;DHT22;10398;52.490;13.434;2022-12-16T06:31:46;-3.30;99.90
20479;DHT22;10398;52.490;13.434;2022-12-16T06:34:30;-3.30;99.90
20479;DHT22;10398;52.490;13.434;2022-12-16T06:37:14;-3.30;99.90
20479;DHT22;10398;52.490;13.434;2022-12-16T06:39:58;-3.20;99.90
20479;DHT22;10398;52.490;13.434;2022-12-16T06:42:42;-3.20;99.90
20479;DHT22;10398;52.490;13.434;2022-12-16T06:45:26;-3.20;99.90
20479;DHT22;10398;52.490;13.434;2022-12-16T06:48:10;-3.30;99.90
20479;DHT22;10398;52.490;13.434;2022-12-16T06:50:54;-3.30;99.90
20479;DHT22;10398;52.490;13.434;2022-12-16T06:53:38;-3.20;99.90
20479;DHT22;10398;52.490;13.434;2022-12-16T06:56:22;-3.20;99.90
20479;DHT22;10398;52.490;13.434;2022-12-16T06:59:06;-3.30;99.90
20479;DHT22;10398;52.490;13.434;2022-12-16T07:01:50;-3.30;99.90
20479;DHT22;10398;52.490;13.434;2022-12-16T07:04:34;-3.20;99.90
20479;DHT22;10398;52.490;13.434;2022-12-16T07:07:19;-3.20;99.90
20479;DHT22;10398;52.490;13.434;2022-12-16T07:10:03;-3.20;99.90
20479;DHT22;10398;52.490;13.434;2022-12-16T07:12:47;-3.20;99.90
20479;DHT22;10398;52.490;13.434;2022-12-16T07:15:31;-3.20;99.90
20479;DHT22;10398;52.490;13.434;2022-12-16T07:18:15;-3.20;99.90
20479;DHT22;10398;52.490;13.434;2022-12-16T07:20:59;-3.10;99.90
20479;DHT22;10398;52.490;13.434;2022-12-16T07:23:44;-3.20;99.90
20479;DHT22;10398;52.490;13.434;2022-12-16T07:26:28;-3.20;99.90
20479;DHT22;10398;52.490;13.434;2022-12-16T07:29:12;-3.20;99.90
20479;DHT22;10398;52.490;13.434;2022-12-16T07:31:56;-3.20;99.90
20479;DHT22;10398;52.490;13.434;2022-12-16T07:34:40;-3.00;99.90
20479;DHT22;10398;52.490;13.434;2022-12-16T07:37:24;-2.90;99.90
20479;DHT22;10398;52.490;13.434;2022-12-16T07:40:09;-2.80;99.90
20479;DHT22;10398;52.490;13.434;2022-12-16T07:42:53;-2.80;99.90
20479;DHT22;10398;52.490;13.434;2022-12-16T07:45:37;-2.80;99.90
20479;DHT22;10398;52.490;13.434;2022-12-16T07:48:21;-2.80;99.90
20479;DHT22;10398;52.490;13.434;2022-12-16T07:51:05;-2.80;99.90
20479;DHT22;10398;52.490;13.434;2022-12-16T07:53:49;-2.70;99.90
20479;DHT22;10398;52.490;13.434;2022-12-16T07:56:33;-2.60;99.90
20479;DHT22;10398;52.490;13.434;2022-12-16T07:59:18;-2.60;99.90
20479;DHT22;10398;52.490;13.434;2022-12-16T08:02:01;-2.50;99.90
20479;DHT22;10398;52.490;13.434;2022-12-16T08:04:46;-2.40;99.90
20479;DHT22;10398;52.490;13.434;2022-12-16T08:07:31;-2.40;99.90
20479;DHT22;10398;52.490;13.434;2022-12-16T08:10:15;-2.40;99.90
20479;DHT22;10398;52.490;13.434;2022-12-16T08:13:00;-2.30;99.90
20479;DHT22;10398;52.490;13.434;2022-12-16T08:15:45;-2.30;99.90
20479;DHT22;10398;52.490;13.434;2022-12-16T08:18:29;-2.30;99.90
20479;DHT22;10398;52.490;13.434;2022-12-16T08:21:13;-2.30;99.90
20479;DHT22;10398;52.490;13.434;2022-12-16T08:23:57;-2.20;99.90
20479;DHT22;10398;52.490;13.434;2022-12-16T08:26:41;-2.20;99.90
20479;DHT22;10398;52.490;13.434;2022-12-16T08:29:26;-2.30;99.90
20479;DHT22;10398;52.490;13.434;2022-12-16T08:32:10;-2.20;99.90
20479;DHT22;10398;52.490;13.434;2022-12-16T08:34:54;-2.10;99.90
20479;DHT22;10398;52.490;13.434;2022-12-16T08:37:38;-2.00;99.90
20479;DHT22;10398;52.490;13.434;2022-12-16T08:40:22;-1.90;99.90
20479;DHT22;10398;52.490;13.434;2022-12-16T08:43:07;-1.80;99.90
20479;DHT22;10398;52.490;13.434;2022-12-16T08:45:52;-1.70;99.90
20479;DHT22;10398;52.490;13.434;2022-12-16T08:48:37;-1.60;99.90
20479;DHT22;10398;52.490;13.434;2022-12-16T08:51:22;-1.50;99.90
20479;DHT22;10398;52.490;13.434;2022-12-16T08:54:06;-1.30;99.90
20479;DHT22;10398;52.490;13.434;2022-12-16T08:56:50;-1.20;99.90
20479;DHT22;10398;52.490;13.434;2022-12-16T08:59:34;-1.00;99.90
20479;DHT22;10398;52.490;13.434;2022-12-16T09:02:18;-0.80;99.90
20479;DHT22;10398;52.490;13.434;2022-12-16T09:05:02;-0.70;99.90
20479;DHT22;10398;52.490;13.434;2022-12-16T09:07:47;-0.60;99.90
20479;DHT22;10398;52.490;13.434;2022-12-16T09:10:31;-0.50;99.90
20479;DHT22;10398;52.490;13.434;2022-12-16T09:13:15;-0.40;99.90
20479;DHT22;10398;52.490;13.434;2022-12-16T09:16:00;-0.20;99.90
20479;DHT22;10398;52.490;13.434;2022-12-16T09:18:44;0.00;99.90
20479;DHT22;10398;52.490;13.434;2022-12-16T09:21:28;0.10;99.90
20479;DHT22;10398;52.490;13.434;2022-12-16T09:24:13;0.10;99.90
20479;DHT22;10398;52.490;13.434;2022-12-16T09:26:57;0.10;99.90
20479;DHT22;10398;52.490;13.434;2022-12-16T09:29:41;-0.10;99.90
20479;DHT22;10398;52.490;13.434;2022-12-16T09:32:25;0.00;99.90
20479;DHT22;10398;52.490;13.434;2022-12-16T09:35:10;-0.10;99.90
20479;DHT22;10398;52.490;13.434;2022-12-16T09:37:54;-0.10;99.90
20479;DHT22;10398;52.490;13.434;2022-12-16T09:40:40;-0.10;99.90
20479;DHT22;10398;52.490;13.434;2022-12-16T09:49:58;0.10;99.90
20479;DHT22;10398;52.490;13.434;2022-12-16T09:52:46;0.20;99.90
20479;DHT22;10398;52.490;13.434;2022-12-16T09:55:39;0.20;99.90
20479;DHT22;10398;52.490;13.434;2022-12-16T09:58:26;0.20;99.90
20479;DHT22;10398;52.490;13.434;2022-12-16T10:01:12;0.10;99.90
20479;DHT22;10398;52.490;13.434;2022-12-16T10:03:57;0.10;99.90
20479;DHT22;10398;52.490;13.434;2022-12-16T10:06:44;0.00;99.90
20479;DHT22;10398;52.490;13.434;2022-12-16T10:13:16;0.20;99.90
20479;DHT22;10398;52.490;13.434;2022-12-16T10:19:59;0.50;99.90
20479;DHT22;10398;52.490;13.434;2022-12-16T10:22:59;0.70;99.90
20479;DHT22;10398;52.490;13.434;2022-12-16T10:25:50;0.80;99.90
20479;DHT22;10398;52.490;13.434;2022-12-16T10:28:54;0.90;99.90
20479;DHT22;10398;52.490;13.434;2022-12-16T10:31:40;1.00;99.90
20479;DHT22;10398;52.490;13.434;2022-12-16T10:34:28;1.20;99.90
20479;DHT22;10398;52.490;13.434;2022-12-16T10:37:37;1.20;99.90
20479;DHT22;10398;52.490;13.434;2022-12-16T10:40:26;1.20;99.90
20479;DHT22;10398;52.490;13.434;2022-12-16T10:43:17;1.30;99.90
20479;DHT22;10398;52.490;13.434;2022-12-16T10:46:07;1.40;99.90
20479;DHT22;10398;52.490;13.434;2022-12-16T10:48:55;1.50;99.90
20479;DHT22;10398;52.490;13.434;2022-12-16T10:51:39;1.50;99.90
20479;DHT22;10398;52.490;13.434;2022-12-16T10:54:43;1.50;99.90
20479;DHT22;10398;52.490;13.434;2022-12-16T10:58:11;1.60;99.90
20479;DHT22;10398;52.490;13.434;2022-12-16T11:00:58;1.60;99.90
20479;DHT22;10398;52.490;13.434;2022-12-16T11:03:43;1.60;99.90
20479;DHT22;10398;52.490;13.434;2022-12-16T11:06:38;1.70;99.90
20479;DHT22;10398;52.490;13.434;2022-12-16T11:09:28;1.70;99.90
20479;DHT22;10398;52.490;13.434;2022-12-16T11:12:33;1.70;99.90
20479;DHT22;10398;52.490;13.434;2022-12-16T11:15:29;1.80;99.90
20479;DHT22;10398;52.490;13.434;2022-12-16T11:18:18;1.90;99.90
20479;DHT22;10398;52.490;13.434;2022-12-16T11:21:08;1.90;99.90
20479;DHT22;10398;52.490;13.434;2022-12-16T11:26:54;2.10;99.90
20479;DHT22;10398;52.490;13.434;2022-12-16T11:29:53;2.10;99.90
20479;DHT22;10398;52.490;13.434;2022-12-16T11:32:43;2.10;99.90
20479;DHT22;10398;52.490;13.434;2022-12-16T11:35:31;2.00;99.90
20479;DHT22;10398;52.490;13.434;2022-12-16T11:38:22;2.10;99.90
20479;DHT22;10398;52.490;13.434;2022-12-16T11:41:09;2.10;99.90
20479;DHT22;10398;52.490;13.434;2022-12-16T11:43:57;2.20;99.90
20479;DHT22;10398;52.490;13.434;2022-12-16T11:46:43;2.10;99.90
20479;DHT22;10398;52.490;13.434;2022-12-16T11:49:32;2.20;99.90
20479;DHT22;10398;52.490;13.434;2022-12-16T11:52:20;2.20;99.90
20479;DHT22;10398;52.490;13.434;2022-12-16T12:01:32;2.20;99.90
20479;DHT22;10398;52.490;13.434;2022-12-16T12:04:17;2.30;99.90
20479;DHT22;10398;52.490;13.434;2022-12-16T12:07:23;2.30;99.90
20479;DHT22;10398;52.490;13.434;2022-12-16T12:10:35;2.40;99.90
20479;DHT22;10398;52.490;13.434;2022-12-16T12:16:23;2.40;99.90
20479;DHT22;10398;52.490;13.434;2022-12-16T12:19:20;2.40;99.90
20479;DHT22;10398;52.490;13.434;2022-12-16T12:22:17;2.40;99.90
20479;DHT22;10398;52.490;13.434;2022-12-16T12:37:38;2.70;99.90
20479;DHT22;10398;52.490;13.434;2022-12-16T12:49:40;2.80;99.90
20479;DHT22;10398;52.490;13.434;2022-12-16T12:52:51;2.80;99.90
20479;DHT22;10398;52.490;13.434;2022-12-16T12:55:47;2.90;99.90
20479;DHT22;10398;52.490;13.434;2022-12-16T12:58:36;3.00;99.90
20479;DHT22;10398;52.490;13.434;2022-12-16T13:01:27;2.90;99.90
20479;DHT22;10398;52.490;13.434;2022-12-16T13:04:15;2.80;99.90
20479;DHT22;10398;52.490;13.434;2022-12-16T13:07:01;2.80;99.90
20479;DHT22;10398;52.490;13.434;2022-12-16T13:16:03;2.80;99.90
20479;DHT22;10398;52.490;13.434;2022-12-16T13:18:48;2.60;99.90
20479;DHT22;10398;52.490;13.434;2022-12-16T13:21:52;2.70;99.90
20479;DHT22;10398;52.490;13.434;2022-12-16T13:24:45;2.60;99.90
20479;DHT22;10398;52.490;13.434;2022-12-16T13:27:49;2.50;99.90
20479;DHT22;10398;52.490;13.434;2022-12-16T13:30:34;2.50;99.90
20479;DHT22;10398;52.490;13.434;2022-12-16T13:33:30;2.60;99.90
20479;DHT22;10398;52.490;13.434;2022-12-16T13:36:16;2.40;99.90
20479;DHT22;10398;52.490;13.434;2022-12-16T13:39:27;2.40;99.90
20479;DHT22;10398;52.490;13.434;2022-12-16T13:45:28;2.30;99.90
20479;DHT22;10398;52.490;13.434;2022-12-16T13:48:37;2.30;99.90
20479;DHT22;10398;52.490;13.434;2022-12-16T13:51:55;2.40;99.90
20479;DHT22;10398;52.490;13.434;2022-12-16T13:54:53;2.30;99.90
20479;DHT22;10398;52.490;13.434;2022-12-16T13:57:42;2.20;99.90
20479;DHT22;10398;52.490;13.434;2022-12-16T14:00:28;2.30;99.90
20479;DHT22;10398;52.490;13.434;2022-12-16T14:03:19;2.40;99.90
20479;DHT22;10398;52.490;13.434;2022-12-16T14:06:14;2.40;99.90
20479;DHT22;10398;52.490;13.434;2022-12-16T14:09:00;2.40;99.90
20479;DHT22;10398;52.490;13.434;2022-12-16T14:11:46;2.50;99.90
20479;DHT22;10398;52.490;13.434;2022-12-16T14:14:47;2.40;99.90
20479;DHT22;10398;52.490;13.434;2022-12-16T14:17:41;2.30;99.90
20479;DHT22;10398;52.490;13.434;2022-12-16T14:20:31;2.30;99.90
20479;DHT22;10398;52.490;13.434;2022-12-16T14:23:29;2.30;99.90
20479;DHT22;10398;52.490;13.434;2022-12-16T14:26:15;2.20;99.90
20479;DHT22;10398;52.490;13.434;2022-12-16T14:29:01;2.30;99.90
20479;DHT22;10398;52.490;13.434;2022-12-16T14:31:49;2.30;99.90
20479;DHT22;10398;52.490;13.434;2022-12-16T14:34:35;2.30;99.90
20479;DHT22;10398;52.490;13.434;2022-12-16T14:37:27;2.20;99.90
20479;DHT22;10398;52.490;13.434;2022-12-16T14:40:28;2.20;99.90
20479;DHT22;10398;52.490;13.434;2022-12-16T14:43:21;2.20;99.90
20479;DHT22;10398;52.490;13.434;2022-12-16T14:46:26;2.20;99.90
20479;DHT22;10398;52.490;13.434;2022-12-16T14:49:19;2.20;99.90
20479;DHT22;10398;52.490;13.434;2022-12-16T14:52:24;2.20;99.90
20479;DHT22;10398;52.490;13.434;2022-12-16T14:58:09;2.20;99.90
20479;DHT22;10398;52.490;13.434;2022-12-16T15:00:56;2.20;99.90
20479;DHT22;10398;52.490;13.434;2022-12-16T15:03:43;2.30;99.90
20479;DHT22;10398;52.490;13.434;2022-12-16T15:06:47;2.30;99.90
20479;DHT22;10398;52.490;13.434;2022-12-16T15:09:48;2.20;99.90
20479;DHT22;10398;52.490;13.434;2022-12-16T15:12:42;2.20;99.90
20479;DHT22;10398;52.490;13.434;2022-12-16T15:18:37;2.30;99.90
20479;DHT22;10398;52.490;13.434;2022-12-16T15:21:22;2.30;99.90
20479;DHT22;10398;52.490;13.434;2022-12-16T15:24:08;2.20;99.90
20479;DHT22;10398;52.490;13.434;2022-12-16T15:27:14;2.30;99.90
20479;DHT22;10398;52.490;13.434;2022-12-16T15:30:41;2.20;99.90
20479;DHT22;10398;52.490;13.434;2022-12-16T15:33:33;2.10;99.90
20479;DHT22;10398;52.490;13.434;2022-12-16T15:36:32;2.10;99.90
20479;DHT22;10398;52.490;13.434;2022-12-16T15:39:25;2.00;99.90
20479;DHT22;10398;52.490;13.434;2022-12-16T15:42:20;2.10;99.90
20479;DHT22;10398;52.490;13.434;2022-12-16T15:45:19;2.10;99.90
20479;DHT22;10398;52.490;13.434;2022-12-16T15:51:01;2.10;99.90
20479;DHT22;10398;52.490;13.434;2022-12-16T15:53:45;2.10;99.90
20479;DHT22;10398;52.490;13.434;2022-12-16T15:56:42;2.20;99.90
20479;DHT22;10398;52.490;13.434;2022-12-16T15:59:29;2.20;99.90
20479;DHT22;10398;52.490;13.434;2022-12-16T16:02:18;2.20;99.90
20479;DHT22;10398;52.490;13.434;2022-12-16T16:07:58;2.30;99.90
20479;DHT22;10398;52.490;13.434;2022-12-16T16:10:43;2.10;99.90
20479;DHT22;10398;52.490;13.434;2022-12-16T16:13:28;2.10;99.90
20479;DHT22;10398;52.490;13.434;2022-12-16T16:16:13;2.00;99.90
20479;DHT22;10398;52.490;13.434;2022-12-16T16:18:58;1.90;99.90
20479;DHT22;10398;52.490;13.434;2022-12-16T16:21:42;1.90;99.90
20479;DHT22;10398;52.490;13.434;2022-12-16T16:24:26;1.90;99.90
20479;DHT22;10398;52.490;13.434;2022-12-16T16:27:13;1.90;99.90
20479;DHT22;10398;52.490;13.434;2022-12-16T16:29:58;1.90;99.90
20479;DHT22;10398;52.490;13.434;2022-12-16T16:32:42;1.90;99.90
20479;DHT22;10398;52.490;13.434;2022-12-16T16:35:29;1.90;99.90
20479;DHT22;10398;52.490;13.434;2022-12-16T16:38:14;1.90;99.90
20479;DHT22;10398;52.490;13.434;2022-12-16T16:40:58;1.80;99.90
20479;DHT22;10398;52.490;13.434;2022-12-16T16:43:42;1.80;99.90
20479;DHT22;10398;52.490;13.434;2022-12-16T16:46:30;1.80;99.90
20479;DHT22;10398;52.490;13.434;2022-12-16T16:52:15;1.90;99.90
20479;DHT22;10398;52.490;13.434;2022-12-16T16:55:00;1.80;99.90
20479;DHT22;10398;52.490;13.434;2022-12-16T16:57:44;1.90;99.90
20479;DHT22;10398;52.490;13.434;2022-12-16T17:00:28;2.00;99.90
20479;DHT22;10398;52.490;13.434;2022-12-16T17:03:13;2.10;99.90
20479;DHT22;10398;52.490;13.434;2022-12-16T17:05:57;2.00;99.90
20479;DHT22;10398;52.490;13.434;2022-12-16T17:08:41;1.90;99.90
20479;DHT22;10398;52.490;13.434;2022-12-16T17:11:26;1.90;99.90
20479;DHT22;10398;52.490;13.434;2022-12-16T17:14:13;1.90;99.90
20479;DHT22;10398;52.490;13.434;2022-12-16T17:16:58;1.80;99.90
20479;DHT22;10398;52.490;13.434;2022-12-16T17:19:42;1.80;99.90
20479;DHT22;10398;52.490;13.434;2022-12-16T17:22:26;1.70;99.90
20479;DHT22;10398;52.490;13.434;2022-12-16T17:25:11;1.70;99.90
20479;DHT22;10398;52.490;13.434;2022-12-16T17:27:55;1.70;99.90
20479;DHT22;10398;52.490;13.434;2022-12-16T17:30:39;1.70;99.90
20479;DHT22;10398;52.490;13.434;2022-12-16T17:33:23;1.70;99.90
20479;DHT22;10398;52.490;13.434;2022-12-16T17:36:13;1.80;99.90
20479;DHT22;10398;52.490;13.434;2022-12-16T17:38:58;1.90;99.90
20479;DHT22;10398;52.490;13.434;2022-12-16T17:41:42;1.90;99.90
20479;DHT22;10398;52.490;13.434;2022-12-16T17:44:26;1.90;99.90
20479;DHT22;10398;52.490;13.434;2022-12-16T17:47:11;1.80;99.90
20479;DHT22;10398;52.490;13.434;2022-12-16T17:49:55;1.90;99.90
20479;DHT22;10398;52.490;13.434;2022-12-16T17:52:42;1.70;99.90
20479;DHT22;10398;52.490;13.434;2022-12-16T17:55:26;1.70;99.90
20479;DHT22;10398;52.490;13.434;2022-12-16T17:58:10;1.60;99.90
20479;DHT22;10398;52.490;13.434;2022-12-16T18:01:00;1.60;99.90
20479;DHT22;10398;52.490;13.434;2022-12-16T18:03:44;1.60;99.90
20479;DHT22;10398;52.490;13.434;2022-12-16T18:06:28;1.50;99.90
20479;DHT22;10398;52.490;13.434;2022-12-16T18:09:12;1.60;99.90
20479;DHT22;10398;52.490;13.434;2022-12-16T18:11:56;1.60;99.90
20479;DHT22;10398;52.490;13.434;2022-12-16T18:14:40;1.60;99.90
20479;DHT22;10398;52.490;13.434;2022-12-16T18:17:24;1.60;99.90
20479;DHT22;10398;52.490;13.434;2022-12-16T18:20:09;1.70;99.90
20479;DHT22;10398;52.490;13.434;2022-12-16T18:22:53;1.70;99.90
20479;DHT22;10398;52.490;13.434;2022-12-16T18:25:37;1.70;99.90
20479;DHT22;10398;52.490;13.434;2022-12-16T18:28:22;1.70;99.90
20479;DHT22;10398;52.490;13.434;2022-12-16T18:31:06;1.60;99.90
20479;DHT22;10398;52.490;13.434;2022-12-16T18:33:50;1.60;99.90
20479;DHT22;10398;52.490;13.434;2022-12-16T18:36:34;1.70;99.90
20479;DHT22;10398;52.490;13.434;2022-12-16T18:39:19;1.60;99.90
20479;DHT22;10398;52.490;13.434;2022-12-16T18:42:03;1.70;99.90
20479;DHT22;10398;52.490;13.434;2022-12-16T18:44:50;1.70;99.90
20479;DHT22;10398;52.490;13.434;2022-12-16T18:47:34;1.70;99.90
20479;DHT22;10398;52.490;13.434;2022-12-16T18:50:18;1.70;99.90
20479;DHT22;10398;52.490;13.434;2022-12-16T18:53:07;1.70;99.90
20479;DHT22;10398;52.490;13.434;2022-12-16T18:56:06;1.70;99.90